Time;durP1;ratioP1;P1;durP2;ratioP2;P2;SDS_P1;SDS_P2;PMS_P1;PMS_P2;Temp;Humidity;BMP_temperature;BMP_pressure;BME280_temperature;BME280_humidity;BME280_pressure;Samples;Min_cycle;Max_cycle;Signal;HPM_P1;HPM_P2
2021/11/09 00:01:11;;;;;;;32.58;15.05;;;7.90;99.90;;;;;;5054889;28;20024;-73
2021/11/09 00:03:47;;;;;;;34.10;15.73;;;7.90;99.90;;;;;;5052635;28;20488;-74
2021/11/09 00:06:38;;;;;;;39.22;16.15;;;7.90;99.90;;;;;;5051611;28;20107;-73
2021/11/09 00:09:07;;;;;;;39.38;16.48;;;7.80;99.90;;;;;;5049287;28;20029;-73
2021/11/09 00:11:33;;;;;;;44.03;17.75;;;7.80;99.90;;;;;;5053880;28;20123;-74
2021/11/09 00:13:59;;;;;;;37.63;16.13;;;7.80;99.90;;;;;;5051706;28;20536;-73
2021/11/09 00:16:24;;;;;;;47.15;17.17;;;7.80;99.90;;;;;;5045953;28;20018;-74
2021/11/09 00:18:50;;;;;;;38.70;17.45;;;7.70;99.90;;;;;;5053859;28;20032;-73
2021/11/09 00:21:18;;;;;;;36.25;15.05;;;7.70;99.90;;;;;;5046561;28;20025;-74
2021/11/09 00:23:46;;;;;;;39.40;17.73;;;7.70;99.90;;;;;;5049450;28;20010;-73
2021/11/09 00:26:13;;;;;;;42.55;17.75;;;7.70;99.90;;;;;;5045365;28;20021;-73
2021/11/09 00:28:39;;;;;;;37.90;17.88;;;7.70;99.90;;;;;;5049632;28;20109;-73
2021/11/09 00:31:05;;;;;;;31.75;15.02;;;7.70;99.90;;;;;;5052066;28;20064;-73
2021/11/09 00:33:31;;;;;;;47.40;18.02;;;7.70;99.90;;;;;;5055502;28;20064;-73
2021/11/09 00:35:57;;;;;;;38.95;16.65;;;7.60;99.90;;;;;;5053292;28;20402;-74
2021/11/09 00:38:22;;;;;;;43.30;17.33;;;7.70;99.90;;;;;;5055363;28;20104;-74
2021/11/09 00:40:48;;;;;;;35.88;15.65;;;7.60;99.90;;;;;;5052818;28;20105;-74
2021/11/09 00:43:16;;;;;;;30.67;15.63;;;7.70;99.90;;;;;;5052800;28;20028;-75
2021/11/09 00:45:42;;;;;;;32.85;14.63;;;7.70;99.90;;;;;;5046887;28;20022;-75
2021/11/09 00:48:09;;;;;;;33.55;15.05;;;7.60;99.90;;;;;;5046854;28;20028;-75
2021/11/09 00:50:37;;;;;;;31.35;15.90;;;7.60;99.90;;;;;;5052692;28;20453;-73
2021/11/09 00:53:03;;;;;;;33.25;15.60;;;7.60;99.90;;;;;;5050938;28;20036;-75
2021/11/09 00:55:30;;;;;;;32.00;15.88;;;7.60;99.90;;;;;;5051112;28;20083;-74
2021/11/09 00:57:55;;;;;;;42.42;16.15;;;7.60;99.90;;;;;;5052072;28;20063;-74
2021/11/09 01:00:26;;;;;;;42.22;16.17;;;7.60;99.90;;;;;;5050296;28;20060;-74
2021/11/09 01:02:53;;;;;;;34.97;14.80;;;7.60;99.90;;;;;;5049550;28;20040;-75
2021/11/09 01:05:22;;;;;;;37.38;16.40;;;7.60;99.90;;;;;;5049656;28;20025;-74
2021/11/09 01:07:56;;;;;;;33.17;14.65;;;7.60;99.90;;;;;;5053531;28;20025;-74
2021/11/09 01:10:24;;;;;;;33.22;13.88;;;7.60;99.90;;;;;;5045571;28;20389;-74
2021/11/09 01:12:51;;;;;;;30.50;13.98;;;7.60;99.90;;;;;;5054065;28;20029;-75
2021/11/09 01:15:17;;;;;;;31.27;13.32;;;7.60;99.90;;;;;;5044070;28;20065;-74
2021/11/09 01:17:43;;;;;;;35.00;13.70;;;7.60;99.90;;;;;;5049654;28;20026;-75
2021/11/09 01:20:13;;;;;;;31.75;13.32;;;7.60;99.90;;;;;;5053060;28;20020;-74
2021/11/09 01:22:39;;;;;;;34.53;15.18;;;7.60;99.90;;;;;;5050932;28;20070;-74
2021/11/09 01:25:05;;;;;;;42.42;15.38;;;7.60;99.90;;;;;;5046927;28;20113;-75
2021/11/09 01:27:31;;;;;;;35.20;13.68;;;7.60;99.90;;;;;;5050184;28;20469;-74
2021/11/09 01:29:57;;;;;;;39.67;14.98;;;7.60;99.90;;;;;;5053038;28;20029;-75
2021/11/09 01:32:23;;;;;;;39.13;15.80;;;7.60;99.90;;;;;;5051002;28;20048;-74
2021/11/09 01:34:49;;;;;;;38.45;15.45;;;7.60;99.90;;;;;;5040002;28;20022;-75
2021/11/09 01:37:15;;;;;;;35.88;15.27;;;7.60;99.90;;;;;;5049963;28;20454;-74
2021/11/09 01:39:41;;;;;;;41.60;16.48;;;7.50;99.90;;;;;;5044576;28;20033;-75
2021/11/09 01:42:07;;;;;;;40.35;17.05;;;7.50;99.90;;;;;;5046603;28;20104;-74
2021/11/09 01:44:33;;;;;;;40.92;17.13;;;7.50;99.90;;;;;;5044849;28;20104;-74
2021/11/09 01:46:59;;;;;;;26.55;13.82;;;7.40;99.90;;;;;;5054875;28;20021;-74
2021/11/09 01:49:26;;;;;;;34.03;16.05;;;7.40;99.90;;;;;;5050894;28;20016;-74
2021/11/09 01:51:51;;;;;;;45.85;17.52;;;7.40;99.90;;;;;;5052675;28;20119;-74
2021/11/09 01:54:17;;;;;;;42.35;16.40;;;7.40;99.90;;;;;;5051156;28;20064;-76
2021/11/09 01:56:43;;;;;;;47.58;17.85;;;7.40;99.90;;;;;;5040055;28;20066;-74
2021/11/09 01:59:10;;;;;;;45.58;20.00;;;7.40;99.90;;;;;;5032587;28;20064;-74
2021/11/09 02:01:35;;;;;;;41.53;16.25;;;7.40;99.90;;;;;;5045103;28;20021;-74
2021/11/09 02:04:06;;;;;;;31.98;14.52;;;7.40;99.90;;;;;;5052964;28;20114;-74
2021/11/09 02:06:33;;;;;;;29.85;13.68;;;7.50;99.90;;;;;;5052243;28;20665;-74
2021/11/09 02:09:14;;;;;;;28.15;12.82;;;7.40;99.90;;;;;;5051914;28;20036;-74
2021/11/09 02:11:40;;;;;;;37.53;14.30;;;7.40;99.90;;;;;;5048589;28;20013;-74
2021/11/09 02:14:06;;;;;;;43.97;17.13;;;7.40;99.90;;;;;;5044690;28;20037;-74
2021/11/09 02:16:33;;;;;;;57.78;19.60;;;7.40;99.90;;;;;;5056759;28;20086;-74
2021/11/09 02:18:59;;;;;;;41.67;18.75;;;7.30;99.90;;;;;;5056649;28;20703;-74
2021/11/09 02:21:25;;;;;;;52.38;19.17;;;7.30;99.90;;;;;;5056954;28;20045;-73
2021/11/09 02:23:51;;;;;;;46.70;20.15;;;7.30;99.90;;;;;;5039972;28;20467;-74
2021/11/09 02:26:20;;;;;;;42.05;18.30;;;7.30;99.90;;;;;;5036996;28;20026;-74
2021/11/09 02:28:48;;;;;;;35.03;14.23;;;7.40;99.90;;;;;;5036175;28;20030;-73
2021/11/09 02:31:14;;;;;;;31.40;12.80;;;7.40;99.90;;;;;;5035548;28;20065;-74
2021/11/09 02:33:40;;;;;;;27.60;13.60;;;7.40;99.90;;;;;;5042804;28;20029;-74
2021/11/09 02:36:06;;;;;;;31.52;13.77;;;7.40;99.90;;;;;;5056825;28;20099;-74
2021/11/09 02:38:32;;;;;;;34.13;15.15;;;7.40;99.90;;;;;;5054375;28;20477;-74
2021/11/09 02:40:58;;;;;;;45.60;17.90;;;7.30;99.90;;;;;;5055484;28;20025;-73
2021/11/09 02:43:26;;;;;;;41.42;16.60;;;7.40;99.90;;;;;;5039868;28;20030;-73
2021/11/09 02:48:45;;;;;;;49.75;19.73;;;7.30;99.90;;;;;;5036279;28;20040;-74
2021/11/09 02:51:18;;;;;;;41.83;15.68;;;7.40;99.90;;;;;;5036288;28;20025;-74
2021/11/09 02:53:50;;;;;;;34.72;15.65;;;7.40;99.90;;;;;;5036363;28;20112;-74
2021/11/09 03:09:07;;;;;;;31.25;15.15;;;7.30;99.90;;;;;;5036038;28;20125;-75
2021/11/09 03:11:34;;;;;;;41.65;15.20;;;7.30;99.90;;;;;;5038844;28;20488;-74
2021/11/09 03:14:01;;;;;;;43.88;18.95;;;7.20;99.90;;;;;;5054710;28;20025;-74
2021/11/09 03:16:31;;;;;;;50.70;17.38;;;7.20;99.90;;;;;;5054583;28;20424;-74
2021/11/09 03:19:23;;;;;;;41.22;16.58;;;7.20;99.90;;;;;;5053513;28;20503;-74
2021/11/09 03:44:19;;;;;;;47.58;19.15;;;7.00;99.90;;;;;;5035881;28;20044;-74
2021/11/09 03:46:52;;;;;;;55.17;19.98;;;7.10;99.90;;;;;;5034122;28;20033;-74
2021/11/09 03:49:20;;;;;;;56.75;19.92;;;7.00;99.90;;;;;;5035516;28;20024;-74
2021/11/09 03:51:46;;;;;;;52.20;21.70;;;7.10;99.90;;;;;;5051588;28;20036;-74
2021/11/09 03:54:16;;;;;;;59.20;22.58;;;7.00;99.90;;;;;;5037605;28;20033;-74
2021/11/09 03:59:14;;;;;;;55.15;19.60;;;7.00;99.90;;;;;;5054553;28;20065;-74
2021/11/09 04:01:49;;;;;;;59.70;21.33;;;7.00;99.90;;;;;;5054811;28;20029;-74
2021/11/09 04:04:38;;;;;;;68.75;21.33;;;7.10;99.90;;;;;;5055060;28;20280;-74
2021/11/09 04:10:10;;;;;;;52.38;21.63;;;7.00;99.90;;;;;;5038542;28;20037;-74
2021/11/09 04:15:23;;;;;;;52.92;20.33;;;7.00;99.90;;;;;;5053195;28;20052;-74
2021/11/09 04:18:06;;;;;;;44.08;17.40;;;7.00;99.90;;;;;;5054329;28;20446;-74
2021/11/09 04:23:47;;;;;;;62.60;21.48;;;7.00;99.90;;;;;;5053976;28;20021;-73
2021/11/09 04:53:25;;;;;;;49.25;19.17;;;7.10;99.90;;;;;;5052820;28;20136;-74
2021/11/09 05:01:11;;;;;;;51.97;18.77;;;7.10;99.90;;;;;;5053806;28;20055;-73
2021/11/09 05:09:54;;;;;;;54.30;20.42;;;7.10;99.90;;;;;;5033928;28;20037;-74
2021/11/09 05:12:20;;;;;;;48.65;19.42;;;7.20;99.90;;;;;;5045323;28;20044;-74
2021/11/09 05:14:46;;;;;;;42.60;18.65;;;7.10;99.90;;;;;;5033046;28;20444;-74
2021/11/09 05:17:11;;;;;;;48.08;18.95;;;7.10;99.90;;;;;;5032719;28;20033;-74
2021/11/09 05:19:37;;;;;;;49.92;19.85;;;7.00;99.90;;;;;;5036444;28;20030;-73
2021/11/09 05:22:03;;;;;;;51.15;19.45;;;7.00;99.90;;;;;;5033025;28;20033;-73
2021/11/09 05:24:29;;;;;;;42.40;17.40;;;7.00;99.90;;;;;;5035192;28;20076;-73
2021/11/09 05:26:55;;;;;;;59.97;19.33;;;7.00;99.90;;;;;;5032077;28;20121;-74
2021/11/09 05:29:21;;;;;;;53.70;19.85;;;7.00;99.90;;;;;;5033263;28;20033;-74
2021/11/09 05:31:46;;;;;;;50.13;19.30;;;7.00;99.90;;;;;;5033305;28;20030;-74
2021/11/09 05:34:12;;;;;;;54.65;19.73;;;6.90;99.90;;;;;;5043925;28;20037;-73
2021/11/09 05:36:42;;;;;;;44.92;18.48;;;6.90;99.90;;;;;;5041667;28;20128;-74
2021/11/09 05:39:20;;;;;;;46.72;18.60;;;6.90;99.90;;;;;;5043839;28;20059;-74
2021/11/09 05:41:50;;;;;;;44.17;17.00;;;6.90;99.90;;;;;;5053228;28;20473;-74
2021/11/09 05:44:15;;;;;;;50.58;18.55;;;7.00;99.90;;;;;;5051443;28;20037;-73
2021/11/09 05:46:43;;;;;;;51.88;18.17;;;6.90;99.90;;;;;;5051722;28;20106;-74
2021/11/09 05:49:08;;;;;;;45.55;16.40;;;7.00;99.90;;;;;;5042554;28;20048;-74
2021/11/09 05:51:35;;;;;;;49.90;19.25;;;6.90;99.90;;;;;;5032639;28;20049;-74
2021/11/09 05:54:00;;;;;;;51.80;19.73;;;6.90;99.90;;;;;;5032794;28;20055;-74
2021/11/09 05:56:27;;;;;;;54.88;19.17;;;6.80;99.90;;;;;;5032610;28;20490;-74
2021/11/09 05:58:52;;;;;;;48.88;18.60;;;6.80;99.90;;;;;;5031727;28;20029;-74
2021/11/09 06:01:18;;;;;;;52.13;17.65;;;6.80;99.90;;;;;;5034993;28;20473;-74
2021/11/09 06:03:44;;;;;;;42.50;17.38;;;6.80;99.90;;;;;;5035566;28;20026;-74
2021/11/09 06:06:10;;;;;;;44.33;16.63;;;6.80;99.90;;;;;;5032404;28;20017;-74
2021/11/09 06:08:36;;;;;;;48.17;17.42;;;6.90;99.90;;;;;;5032870;28;20439;-74
2021/11/09 06:11:02;;;;;;;50.72;16.98;;;6.90;99.90;;;;;;5032843;28;20038;-74
2021/11/09 06:13:28;;;;;;;45.85;16.23;;;6.90;99.90;;;;;;5031655;28;20033;-74
2021/11/09 06:15:54;;;;;;;35.13;15.55;;;6.90;99.90;;;;;;5032626;28;20053;-74
2021/11/09 06:18:19;;;;;;;41.22;16.35;;;7.00;99.90;;;;;;5030709;28;20439;-74
2021/11/09 06:20:45;;;;;;;43.80;14.80;;;6.90;99.90;;;;;;5032030;28;20496;-74
2021/11/09 06:23:11;;;;;;;38.13;14.98;;;6.90;99.90;;;;;;5041832;28;20030;-74
2021/11/09 06:25:39;;;;;;;36.60;15.07;;;7.00;99.90;;;;;;5032069;28;20026;-73
2021/11/09 06:28:06;;;;;;;37.50;14.73;;;6.90;99.90;;;;;;5030726;28;20429;-74
2021/11/09 06:30:33;;;;;;;44.00;15.35;;;6.90;99.90;;;;;;5032368;28;20409;-74
2021/11/09 06:32:59;;;;;;;37.53;14.20;;;6.90;99.90;;;;;;5034004;28;20065;-74
2021/11/09 06:35:25;;;;;;;38.33;14.60;;;6.80;99.90;;;;;;5052643;28;20021;-74
2021/11/09 06:37:52;;;;;;;49.65;16.15;;;6.80;99.90;;;;;;5052812;28;20108;-74
2021/11/09 06:40:18;;;;;;;46.72;17.30;;;6.80;99.90;;;;;;5051249;28;20077;-74
2021/11/09 06:42:43;;;;;;;40.17;16.55;;;6.70;99.90;;;;;;5052728;28;20102;-74
2021/11/09 06:45:09;;;;;;;49.25;19.15;;;6.60;99.90;;;;;;5051025;28;20043;-74
2021/11/09 06:47:35;;;;;;;48.10;17.55;;;6.60;99.90;;;;;;5045022;28;20616;-74
2021/11/09 06:50:02;;;;;;;44.75;17.52;;;6.50;99.90;;;;;;5042493;28;20033;-74
2021/11/09 06:52:28;;;;;;;45.72;17.15;;;6.50;99.90;;;;;;5034887;28;20433;-74
2021/11/09 06:54:54;;;;;;;48.55;16.92;;;6.50;99.90;;;;;;5042817;28;20454;-74
2021/11/09 06:57:19;;;;;;;50.38;16.60;;;6.50;99.90;;;;;;5041422;28;20032;-74
2021/11/09 06:59:47;;;;;;;49.10;18.20;;;6.50;99.90;;;;;;5046491;28;20101;-74
2021/11/09 07:02:13;;;;;;;47.85;17.10;;;6.50;99.90;;;;;;5044139;28;20034;-74
2021/11/09 07:04:39;;;;;;;45.35;15.77;;;6.50;99.90;;;;;;5044849;28;20029;-74
2021/11/09 07:07:05;;;;;;;41.88;16.48;;;6.50;99.90;;;;;;5043495;28;20087;-74
2021/11/09 07:09:31;;;;;;;38.58;15.68;;;6.50;99.90;;;;;;5042856;28;20105;-74
2021/11/09 07:11:57;;;;;;;44.83;16.17;;;6.60;99.90;;;;;;5046439;28;20537;-74
2021/11/09 07:14:23;;;;;;;56.45;18.05;;;6.50;99.90;;;;;;5054624;28;20074;-76
2021/11/09 07:16:51;;;;;;;44.47;14.85;;;6.50;99.90;;;;;;5054959;28;20021;-74
2021/11/09 07:19:18;;;;;;;51.92;17.15;;;6.60;99.90;;;;;;5054441;28;20025;-73
2021/11/09 07:21:46;;;;;;;37.70;16.55;;;6.60;99.90;;;;;;5051720;28;20026;-73
2021/11/09 07:24:12;;;;;;;42.67;17.27;;;6.50;99.90;;;;;;5035922;28;20034;-74
2021/11/09 07:26:38;;;;;;;46.42;17.83;;;6.60;99.90;;;;;;5039106;28;20389;-74
2021/11/09 07:29:04;;;;;;;40.42;17.77;;;6.60;99.90;;;;;;5054927;28;20033;-74
2021/11/09 07:31:32;;;;;;;40.22;16.33;;;6.60;99.90;;;;;;5052552;28;20170;-74
2021/11/09 07:33:58;;;;;;;37.03;15.30;;;6.60;99.90;;;;;;5051801;28;20078;-74
2021/11/09 07:36:25;;;;;;;42.20;14.88;;;6.60;99.90;;;;;;5055440;28;20029;-74
2021/11/09 07:38:51;;;;;;;43.97;16.42;;;6.60;99.90;;;;;;5053938;28;20025;-74
2021/11/09 07:41:16;;;;;;;51.65;16.88;;;6.60;99.90;;;;;;5054166;28;20503;-74
2021/11/09 07:43:42;;;;;;;39.25;16.25;;;6.60;99.90;;;;;;5043116;28;20461;-74
2021/11/09 07:46:08;;;;;;;42.90;14.48;;;6.70;99.90;;;;;;5041580;28;20039;-74
2021/11/09 07:48:34;;;;;;;43.42;15.15;;;6.70;99.90;;;;;;5054203;28;20074;-74
2021/11/09 07:51:00;;;;;;;56.15;17.65;;;6.70;99.90;;;;;;5054161;28;20481;-74
2021/11/09 07:53:30;;;;;;;34.40;15.45;;;6.70;99.90;;;;;;5055221;28;20078;-75
2021/11/09 07:58:37;;;;;;;37.75;15.80;;;6.80;99.90;;;;;;5045783;28;20067;-73
2021/11/09 08:02:00;;;;;;;41.78;16.52;;;6.80;99.90;;;;;;5034431;28;20390;-74
2021/11/09 08:04:01;;;;;;;34.30;14.75;;;6.90;99.90;;;;;;5038690;28;20025;-74
2021/11/09 08:11:42;;;;;;;35.80;15.07;;;7.00;99.90;;;;;;5054161;28;20443;-73
2021/11/09 08:14:09;;;;;;;36.95;15.73;;;7.00;99.90;;;;;;5045746;28;20041;-74
2021/11/09 08:16:35;;;;;;;36.75;15.15;;;7.00;99.90;;;;;;5032939;28;20030;-73
2021/11/09 08:19:01;;;;;;;57.53;17.98;;;7.00;99.90;;;;;;5034782;28;20481;-74
2021/11/09 08:21:27;;;;;;;45.88;17.42;;;7.10;99.90;;;;;;5051415;28;20128;-74
2021/11/09 08:23:53;;;;;;;44.67;15.18;;;7.10;99.90;;;;;;5054858;28;20017;-73
2021/11/09 08:26:22;;;;;;;41.83;16.83;;;7.10;99.90;;;;;;5054568;28;20028;-74
2021/11/09 08:28:49;;;;;;;40.45;16.50;;;7.20;99.90;;;;;;5045680;28;20072;-74
2021/11/09 08:31:18;;;;;;;36.78;14.60;;;7.20;99.90;;;;;;5034334;28;20029;-74
2021/11/09 08:33:45;;;;;;;42.55;15.48;;;7.20;99.90;;;;;;5039744;28;20029;-74
2021/11/09 08:36:15;;;;;;;41.78;15.20;;;7.30;99.90;;;;;;5053055;28;20469;-73
2021/11/09 08:38:42;;;;;;;41.90;14.75;;;7.30;99.90;;;;;;5033958;28;20071;-73
2021/11/09 08:41:09;;;;;;;38.35;15.20;;;7.30;99.90;;;;;;5049406;28;20028;-73
2021/11/09 08:43:38;;;;;;;36.65;14.25;;;7.40;99.90;;;;;;5053074;28;20029;-73
2021/11/09 08:48:44;;;;;;;40.33;15.43;;;7.50;99.90;;;;;;5054079;28;20479;-75
2021/11/09 08:51:11;;;;;;;40.22;15.27;;;7.60;99.90;;;;;;5037890;28;20018;-76
2021/11/09 08:53:53;;;;;;;42.35;14.32;;;7.60;99.90;;;;;;5033108;28;20041;-73
2021/11/09 09:06:56;;;;;;;39.65;13.48;;;7.90;99.90;;;;;;5053481;28;20032;-75
2021/11/09 09:09:21;;;;;;;39.85;13.68;;;8.00;99.90;;;;;;5052114;28;20031;-76
2021/11/09 09:11:48;;;;;;;35.83;13.68;;;8.00;99.90;;;;;;5051736;28;20025;-76
2021/11/09 09:14:15;;;;;;;36.95;13.60;;;8.10;99.90;;;;;;5052563;28;20061;-75
2021/11/09 09:16:46;;;;;;;39.60;13.30;;;8.20;99.90;;;;;;5052381;28;20485;-75
2021/11/09 09:19:13;;;;;;;41.72;13.32;;;8.20;99.90;;;;;;5052855;28;20157;-75
2021/11/09 09:24:26;;;;;;;37.65;13.98;;;8.50;99.90;;;;;;5032885;28;20029;-76
2021/11/09 09:54:21;;;;;;;30.08;11.23;;;9.40;99.90;;;;;;5031981;28;20460;-76
2021/11/09 09:56:54;;;;;;;35.53;12.45;;;9.50;99.90;;;;;;5049154;28;20020;-76
2021/11/09 09:59:31;;;;;;;32.10;11.07;;;9.60;99.90;;;;;;5051492;28;20033;-76
2021/11/09 10:02:19;;;;;;;29.02;11.13;;;9.70;99.90;;;;;;5036054;28;20465;-77
2021/11/09 10:04:46;;;;;;;31.75;11.23;;;9.80;99.90;;;;;;5044258;28;20484;-76
2021/11/09 10:07:14;;;;;;;33.53;9.93;;;9.90;99.90;;;;;;5052302;28;20032;-75
2021/11/09 10:09:45;;;;;;;35.60;10.00;;;10.00;99.90;;;;;;5051601;28;20120;-76
2021/11/09 10:12:21;;;;;;;31.90;9.77;;;10.10;99.90;;;;;;5051560;28;20036;-75
2021/11/09 10:14:52;;;;;;;30.13;10.82;;;10.10;99.90;;;;;;5052084;28;20032;-77
2021/11/09 10:17:21;;;;;;;38.72;10.30;;;10.10;99.90;;;;;;5051605;28;20535;-75
2021/11/09 10:19:48;;;;;;;27.10;9.27;;;10.20;99.90;;;;;;5047996;28;20038;-76
2021/11/09 10:22:32;;;;;;;26.25;9.25;;;10.30;99.90;;;;;;5032194;28;20052;-76
2021/11/09 10:25:08;;;;;;;29.15;9.63;;;10.40;99.90;;;;;;5032166;28;20095;-76
2021/11/09 10:27:35;;;;;;;31.48;9.35;;;10.40;99.90;;;;;;5031899;28;20014;-75
2021/11/09 10:30:17;;;;;;;27.63;9.13;;;10.50;99.90;;;;;;5032574;28;20041;-76
2021/11/09 10:32:45;;;;;;;21.93;7.90;;;10.60;99.90;;;;;;5031346;28;20045;-76
2021/11/09 10:35:13;;;;;;;23.25;8.18;;;10.60;99.90;;;;;;5054909;28;20025;-76
2021/11/09 10:37:45;;;;;;;28.08;8.75;;;10.60;99.90;;;;;;5055746;28;20024;-75
2021/11/09 10:40:23;;;;;;;24.13;8.73;;;10.80;99.90;;;;;;5055604;28;20029;-76
2021/11/09 10:42:51;;;;;;;28.13;7.47;;;10.80;99.90;;;;;;5056281;28;20487;-76
2021/11/09 10:45:20;;;;;;;22.08;7.70;;;10.80;99.90;;;;;;5056664;28;20021;-75
2021/11/09 10:48:07;;;;;;;26.00;7.63;;;10.80;99.90;;;;;;5055994;28;20028;-75
2021/11/09 10:50:37;;;;;;;31.85;8.50;;;10.90;99.90;;;;;;5055208;28;20021;-76
2021/11/09 10:53:14;;;;;;;22.98;7.68;;;11.00;99.90;;;;;;5055562;28;20033;-76
2021/11/09 11:04:11;;;;;;;30.52;7.30;;;11.20;99.90;;;;;;5055281;28;20040;-77
2021/11/09 11:06:44;;;;;;;29.05;7.38;;;11.20;99.90;;;;;;5055786;28;20100;-76
2021/11/09 11:09:09;;;;;;;19.52;6.50;;;11.30;99.90;;;;;;5055649;28;20111;-75
2021/11/09 11:11:43;;;;;;;25.50;6.22;;;11.40;99.90;;;;;;5054675;28;20032;-76
2021/11/09 11:14:17;;;;;;;25.98;6.38;;;11.40;99.90;;;;;;5055732;28;20123;-76
2021/11/09 11:16:45;;;;;;;22.77;5.80;;;11.40;99.90;;;;;;5055641;28;20101;-77
2021/11/09 11:19:13;;;;;;;24.20;5.50;;;11.40;99.90;;;;;;5053936;28;20033;-75
2021/11/09 11:21:39;;;;;;;24.75;5.35;;;11.50;99.90;;;;;;5054722;28;20014;-76
2021/11/09 11:24:08;;;;;;;17.52;5.03;;;11.50;99.90;;;;;;5055711;28;20098;-76
2021/11/09 11:26:35;;;;;;;21.73;6.18;;;11.50;99.90;;;;;;5055754;28;20393;-76
2021/11/09 11:29:01;;;;;;;19.25;5.07;;;11.60;99.90;;;;;;5042737;28;20019;-76
2021/11/09 11:31:28;;;;;;;21.70;5.15;;;11.70;99.90;;;;;;5035749;28;20037;-75
2021/11/09 11:33:54;;;;;;;18.50;5.25;;;11.70;99.90;;;;;;5043499;28;20025;-75
2021/11/09 11:36:19;;;;;;;20.33;5.60;;;11.70;99.90;;;;;;5054703;28;20100;-76
2021/11/09 11:38:49;;;;;;;18.73;4.10;;;11.80;99.90;;;;;;5044778;28;20537;-76
2021/11/09 11:41:16;;;;;;;18.83;4.93;;;11.80;99.90;;;;;;5053707;28;20037;-76
2021/11/09 11:43:47;;;;;;;19.90;5.50;;;11.80;99.90;;;;;;5053701;28;20029;-76
2021/11/09 11:46:15;;;;;;;23.30;4.53;;;11.80;99.90;;;;;;5054490;28;20057;-77
2021/11/09 11:49:01;;;;;;;23.90;5.60;;;11.90;99.90;;;;;;5053422;28;20092;-77
2021/11/09 11:51:28;;;;;;;19.90;4.30;;;11.90;99.90;;;;;;5055232;28;20025;-76
2021/11/09 11:53:55;;;;;;;25.13;5.55;;;12.00;99.90;;;;;;5054912;28;20029;-76
2021/11/09 11:56:21;;;;;;;23.05;5.50;;;12.00;99.90;;;;;;5055239;28;20078;-76
2021/11/09 11:58:47;;;;;;;21.25;4.95;;;12.00;99.90;;;;;;5044735;28;20079;-76
2021/11/09 12:01:34;;;;;;;20.98;5.32;;;12.10;99.90;;;;;;5035096;28;20025;-76
2021/11/09 12:03:59;;;;;;;20.30;4.90;;;12.20;99.90;;;;;;5036923;28;20075;-76
2021/11/09 12:06:26;;;;;;;22.55;4.70;;;12.20;99.90;;;;;;5054143;28;20440;-76
2021/11/09 12:08:54;;;;;;;20.80;4.80;;;12.20;99.90;;;;;;5055073;28;20044;-77
2021/11/09 12:11:23;;;;;;;24.70;5.10;;;12.20;99.90;;;;;;5053884;28;20100;-77
2021/11/09 12:14:09;;;;;;;19.42;4.40;;;12.20;99.90;;;;;;5054886;28;20546;-76
2021/11/09 12:16:55;;;;;;;19.40;4.30;;;12.20;99.90;;;;;;5055073;28;20152;-76
2021/11/09 12:19:35;;;;;;;21.42;4.78;;;12.20;99.90;;;;;;5054542;28;20016;-76
2021/11/09 12:22:11;;;;;;;13.90;4.35;;;12.20;99.90;;;;;;5054554;28;20094;-76
2021/11/09 12:24:51;;;;;;;14.93;3.80;;;12.30;99.90;;;;;;5054376;28;20405;-76
2021/11/09 12:27:18;;;;;;;17.25;4.60;;;12.30;99.90;;;;;;5054570;28;20075;-76
2021/11/09 12:29:53;;;;;;;19.85;4.32;;;12.30;99.90;;;;;;5037072;28;20106;-76
2021/11/09 12:32:21;;;;;;;11.85;3.75;;;12.30;99.90;;;;;;5034514;28;20060;-76
2021/11/09 12:35:03;;;;;;;17.33;4.40;;;12.30;99.90;;;;;;5050450;28;20104;-76
2021/11/09 12:37:30;;;;;;;13.93;4.47;;;12.30;99.90;;;;;;5054806;28;20048;-76
2021/11/09 12:40:30;;;;;;;17.35;4.45;;;12.30;99.90;;;;;;5054240;28;20029;-75
2021/11/09 12:43:16;;;;;;;20.85;4.15;;;12.30;99.90;;;;;;5053758;28;20021;-76
2021/11/09 12:46:03;;;;;;;16.77;4.43;;;12.40;99.90;;;;;;5054267;28;20108;-76
2021/11/09 12:48:33;;;;;;;21.00;4.78;;;12.30;99.90;;;;;;5043083;28;20033;-76
2021/11/09 12:51:05;;;;;;;19.52;4.35;;;12.30;99.90;;;;;;5033820;28;20025;-76
2021/11/09 12:53:34;;;;;;;15.60;4.30;;;12.30;99.90;;;;;;5034012;28;20033;-76
2021/11/09 12:56:06;;;;;;;12.98;3.92;;;12.30;99.90;;;;;;5033909;28;20079;-76
2021/11/09 12:58:36;;;;;;;27.08;4.85;;;12.40;99.90;;;;;;5034036;28;20056;-76
2021/11/09 13:01:18;;;;;;;22.92;5.30;;;12.30;99.90;;;;;;5034075;28;20032;-75
2021/11/09 13:06:47;;;;;;;16.20;4.60;;;12.30;99.90;;;;;;5053238;28;20083;-76
2021/11/09 13:09:19;;;;;;;15.45;3.65;;;12.30;99.90;;;;;;5053830;28;20094;-76
2021/11/09 13:11:50;;;;;;;17.67;4.57;;;12.40;99.90;;;;;;5051748;28;20021;-76
2021/11/09 13:14:16;;;;;;;13.20;3.97;;;12.40;99.90;;;;;;5053475;28;20385;-76
2021/11/09 13:16:45;;;;;;;16.77;3.70;;;12.40;99.90;;;;;;5051809;28;20550;-77
2021/11/09 13:19:11;;;;;;;18.73;4.10;;;12.40;99.90;;;;;;5034870;28;20437;-77
2021/11/09 13:21:39;;;;;;;18.83;4.40;;;12.40;99.90;;;;;;5034193;28;20544;-78
2021/11/09 13:24:05;;;;;;;14.88;3.97;;;12.40;99.90;;;;;;5052803;28;20056;-77
2021/11/09 13:26:31;;;;;;;16.38;3.60;;;12.30;99.90;;;;;;5053610;28;20473;-77
2021/11/09 13:29:06;;;;;;;14.10;3.40;;;12.30;99.90;;;;;;5051109;28;20082;-78
2021/11/09 13:31:32;;;;;;;8.90;3.53;;;12.30;99.90;;;;;;5051951;28;20528;-76
2021/11/09 13:34:00;;;;;;;14.13;3.33;;;12.30;99.90;;;;;;5046542;28;20083;-77
2021/11/09 13:36:27;;;;;;;13.52;3.55;;;12.30;99.90;;;;;;5053622;28;20077;-77
2021/11/09 13:38:53;;;;;;;14.05;3.63;;;12.30;99.90;;;;;;5052609;28;20052;-75
2021/11/09 13:41:23;;;;;;;13.30;3.60;;;12.40;99.90;;;;;;5052387;28;20177;-77
2021/11/09 13:44:01;;;;;;;14.75;3.33;;;12.30;99.90;;;;;;5051296;28;20104;-78
2021/11/09 13:46:37;;;;;;;11.68;3.70;;;12.30;99.90;;;;;;5048580;28;20022;-78
2021/11/09 13:49:15;;;;;;;15.52;3.85;;;12.30;99.90;;;;;;5047988;28;20095;-78
2021/11/09 13:51:58;;;;;;;14.10;3.33;;;12.30;99.90;;;;;;5052567;28;20469;-78
2021/11/09 13:54:29;;;;;;;13.13;3.65;;;12.40;99.90;;;;;;5051950;28;20041;-79
2021/11/09 13:56:56;;;;;;;16.58;3.92;;;12.40;99.90;;;;;;5051059;28;20051;-78
2021/11/09 13:59:25;;;;;;;15.50;3.67;;;12.40;99.90;;;;;;5050531;28;20076;-78
2021/11/09 14:02:03;;;;;;;22.15;3.95;;;12.40;99.90;;;;;;5052033;28;20106;-78
2021/11/09 14:07:33;;;;;;;17.60;3.83;;;12.40;99.90;;;;;;5051783;28;20029;-77
2021/11/09 14:18:21;;;;;;;20.55;4.55;;;12.40;99.90;;;;;;5052061;28;20025;-77
2021/11/09 14:20:52;;;;;;;13.85;4.05;;;12.40;99.90;;;;;;5052064;28;20024;-76
2021/11/09 14:23:33;;;;;;;23.42;4.10;;;12.30;99.90;;;;;;5051046;28;20456;-77
2021/11/09 14:26:15;;;;;;;15.15;3.75;;;12.30;99.90;;;;;;5052082;28;20109;-76
2021/11/09 14:28:41;;;;;;;20.10;4.45;;;12.30;99.90;;;;;;5044308;28;20022;-76
2021/11/09 14:31:32;;;;;;;17.60;4.30;;;12.20;99.90;;;;;;5038636;28;20103;-76
2021/11/09 14:34:12;;;;;;;15.18;3.28;;;12.20;99.90;;;;;;5051923;28;20359;-77
2021/11/09 14:36:39;;;;;;;10.63;3.50;;;12.20;99.90;;;;;;5052560;28;20053;-77
2021/11/09 14:39:24;;;;;;;17.15;4.53;;;12.20;99.90;;;;;;5051811;28;20025;-77
2021/11/09 14:42:13;;;;;;;22.48;4.32;;;12.20;99.90;;;;;;5051573;28;20025;-77
2021/11/09 14:45:06;;;;;;;16.73;4.15;;;12.20;99.90;;;;;;5051914;28;20096;-77
2021/11/09 14:47:36;;;;;;;;;;;12.20;99.90;;;;;;5050137;28;20467;-79
2021/11/09 14:50:09;;;;;;;21.30;4.43;;;12.30;99.90;;;;;;5050947;28;19909;-78
2021/11/09 14:52:37;;;;;;;17.45;4.65;;;12.20;99.90;;;;;;5051025;28;20079;-78
2021/11/09 14:55:28;;;;;;;14.02;3.75;;;12.20;99.90;;;;;;5051707;28;20079;-78
2021/11/09 14:57:54;;;;;;;12.57;3.45;;;12.20;99.90;;;;;;5049137;28;20535;-78
2021/11/09 15:00:21;;;;;;;15.27;3.97;;;12.10;99.90;;;;;;5032253;28;20416;-78
2021/11/09 15:02:59;;;;;;;21.83;4.40;;;12.10;99.90;;;;;;5047590;28;20018;-77
2021/11/09 15:05:25;;;;;;;22.98;4.72;;;12.00;99.90;;;;;;5033641;28;20025;-77
2021/11/09 15:08:03;;;;;;;13.15;3.42;;;12.00;99.90;;;;;;5033114;28;20052;-77
2021/11/09 15:13:28;;;;;;;14.57;3.58;;;12.00;99.90;;;;;;5050320;28;20171;-78
2021/11/09 15:32:12;;;;;;;16.52;4.38;;;11.40;99.90;;;;;;5044702;28;20037;-78
2021/11/09 15:39:30;;;;;;;12.73;3.35;;;11.40;99.90;;;;;;5055788;28;20029;-78
2021/11/09 15:41:58;;;;;;;15.32;3.58;;;11.40;99.90;;;;;;5053781;28;20009;-79
2021/11/09 15:44:23;;;;;;;18.15;5.13;;;11.30;99.90;;;;;;5035425;28;20421;-78
2021/11/09 15:46:55;;;;;;;15.68;5.38;;;11.30;99.90;;;;;;5035414;28;20076;-78
2021/11/09 15:49:21;;;;;;;19.30;5.78;;;11.20;99.90;;;;;;5034119;28;20076;-78
2021/11/09 15:51:47;;;;;;;26.38;10.88;;;11.10;99.90;;;;;;5035308;28;20100;-78
2021/11/09 15:54:13;;;;;;;23.73;8.75;;;11.10;99.90;;;;;;5045937;28;20155;-78
2021/11/09 15:56:40;;;;;;;25.33;6.22;;;11.10;99.90;;;;;;5039978;28;20092;-78